SBSN/STM METAR and TAF weather

Enter ICAO airport designator
Station Type Date Time Source
SBSN METAR 2020/12/06 01:00 UTC NOAA

SBSN 060100Z 12002KT CAVOK 26/25 Q1011


Station Type Date Time Source
SBSN Decoded METAR 2020/12/06 01:00 UTC NOAA

Santarem-Aeroporto, Brazil (SBSN) 02-26S 054-43W 72M
Dec 05, 2020 - 08:00 PM EST / 2020.12.06 0100 UTC
Wind: from the ESE (120 degrees) at 2 MPH (2 KT):0
Visibility: greater than 7 mile(s):0
Temperature: 78 F (26 C)
Dew Point: 77 F (25 C)
Relative Humidity: 94%
Pressure (altimeter): 29.85 in. Hg (1011 hPa)
ob: SBSN 060100Z 12002KT CAVOK 26/25 Q1011
cycle: 1

Station Type Date Time Source
SBSN TAF 2020/12/06 00:00 UTC NOAA

TAF SBSN 052100Z 0600/0624 10010KT 8000 TS BKN017 FEW030CB TN24/0610Z TX32/0617Z
TEMPO 0600/0604 5000 TSRA BKN012 FEW025CB
BECMG 0604/0606 NSW SCT017
BECMG 0612/0614 10010KT BKN017 FEW030TCU
BECMG 0616/0618 10015KT 8000 TS BKN025 FEW035CB
RMK PGS

Example: see airport list